sensor_id;sensor_type;location;lat;lon;timestamp;P1;durP1;ratioP1;P2;durP2;ratioP2
68438;SDS011;55421;51.600;5.718;2022-11-04T00:02:01;4.30;;;3.60;;
68438;SDS011;55421;51.600;5.718;2022-11-04T00:04:29;3.70;;;3.10;;
68438;SDS011;55421;51.600;5.718;2022-11-04T00:06:57;2.00;;;1.90;;
68438;SDS011;55421;51.600;5.718;2022-11-04T00:09:27;2.70;;;1.70;;
68438;SDS011;55421;51.600;5.718;2022-11-04T00:11:56;3.10;;;2.00;;
68438;SDS011;55421;51.600;5.718;2022-11-04T00:14:42;2.80;;;1.50;;
68438;SDS011;55421;51.600;5.718;2022-11-04T00:17:12;3.00;;;2.70;;
68438;SDS011;55421;51.600;5.718;2022-11-04T00:19:45;2.00;;;1.80;;
68438;SDS011;55421;51.600;5.718;2022-11-04T00:22:32;2.20;;;1.70;;
68438;SDS011;55421;51.600;5.718;2022-11-04T00:25:18;1.60;;;1.50;;
68438;SDS011;55421;51.600;5.718;2022-11-04T00:28:15;2.30;;;1.40;;
68438;SDS011;55421;51.600;5.718;2022-11-04T00:31:06;1.70;;;1.40;;
68438;SDS011;55421;51.600;5.718;2022-11-04T00:33:55;6.50;;;1.00;;
68438;SDS011;55421;51.600;5.718;2022-11-04T00:36:23;1.10;;;1.10;;
68438;SDS011;55421;51.600;5.718;2022-11-04T00:38:51;1.60;;;1.50;;
68438;SDS011;55421;51.600;5.718;2022-11-04T00:41:18;2.00;;;1.80;;
68438;SDS011;55421;51.600;5.718;2022-11-04T00:44:00;3.50;;;1.80;;
68438;SDS011;55421;51.600;5.718;2022-11-04T00:46:30;2.00;;;1.80;;
68438;SDS011;55421;51.600;5.718;2022-11-04T00:48:58;1.70;;;1.40;;
68438;SDS011;55421;51.600;5.718;2022-11-04T00:51:26;1.90;;;1.80;;
68438;SDS011;55421;51.600;5.718;2022-11-04T00:53:52;1.80;;;1.70;;
68438;SDS011;55421;51.600;5.718;2022-11-04T00:56:19;3.30;;;2.00;;
68438;SDS011;55421;51.600;5.718;2022-11-04T00:58:46;2.90;;;2.70;;
68438;SDS011;55421;51.600;5.718;2022-11-04T01:01:15;3.40;;;3.10;;
68438;SDS011;55421;51.600;5.718;2022-11-04T01:03:46;3.40;;;3.10;;
68438;SDS011;55421;51.600;5.718;2022-11-04T01:06:15;3.20;;;2.90;;
68438;SDS011;55421;51.600;5.718;2022-11-04T01:08:42;4.40;;;3.50;;
68438;SDS011;55421;51.600;5.718;2022-11-04T01:11:10;4.40;;;3.80;;
68438;SDS011;55421;51.600;5.718;2022-11-04T01:13:37;6.30;;;4.30;;
68438;SDS011;55421;51.600;5.718;2022-11-04T01:16:07;7.60;;;4.80;;
68438;SDS011;55421;51.600;5.718;2022-11-04T01:21:03;7.80;;;5.50;;
68438;SDS011;55421;51.600;5.718;2022-11-04T01:23:35;7.40;;;5.40;;
68438;SDS011;55421;51.600;5.718;2022-11-04T01:26:10;6.00;;;4.60;;
68438;SDS011;55421;51.600;5.718;2022-11-04T01:28:45;6.20;;;4.90;;
68438;SDS011;55421;51.600;5.718;2022-11-04T01:31:18;7.80;;;5.90;;
68438;SDS011;55421;51.600;5.718;2022-11-04T01:33:47;7.70;;;5.50;;
68438;SDS011;55421;51.600;5.718;2022-11-04T01:36:15;7.10;;;5.70;;
68438;SDS011;55421;51.600;5.718;2022-11-04T01:38:42;6.70;;;5.40;;
68438;SDS011;55421;51.600;5.718;2022-11-04T01:41:15;8.00;;;4.70;;
68438;SDS011;55421;51.600;5.718;2022-11-04T01:46:45;5.40;;;4.90;;
68438;SDS011;55421;51.600;5.718;2022-11-04T01:49:36;10.20;;;5.90;;
68438;SDS011;55421;51.600;5.718;2022-11-04T01:52:09;7.50;;;6.10;;
68438;SDS011;55421;51.600;5.718;2022-11-04T01:54:44;8.70;;;5.60;;
68438;SDS011;55421;51.600;5.718;2022-11-04T01:57:17;7.70;;;5.10;;
68438;SDS011;55421;51.600;5.718;2022-11-04T01:59:46;10.60;;;5.70;;
68438;SDS011;55421;51.600;5.718;2022-11-04T02:02:13;11.80;;;5.60;;
68438;SDS011;55421;51.600;5.718;2022-11-04T02:04:41;8.20;;;5.30;;
68438;SDS011;55421;51.600;5.718;2022-11-04T02:07:09;5.60;;;5.00;;
68438;SDS011;55421;51.600;5.718;2022-11-04T02:09:38;8.10;;;5.30;;
68438;SDS011;55421;51.600;5.718;2022-11-04T02:12:07;10.60;;;5.20;;
68438;SDS011;55421;51.600;5.718;2022-11-04T02:14:53;6.80;;;5.40;;
68438;SDS011;55421;51.600;5.718;2022-11-04T02:17:31;6.50;;;4.50;;
68438;SDS011;55421;51.600;5.718;2022-11-04T02:20:30;8.10;;;4.50;;
68438;SDS011;55421;51.600;5.718;2022-11-04T02:26:25;11.50;;;4.90;;
68438;SDS011;55421;51.600;5.718;2022-11-04T02:29:33;6.10;;;4.20;;
68438;SDS011;55421;51.600;5.718;2022-11-04T02:32:18;6.40;;;4.30;;
68438;SDS011;55421;51.600;5.718;2022-11-04T02:38:10;6.40;;;3.40;;
68438;SDS011;55421;51.600;5.718;2022-11-04T02:40:59;6.30;;;3.60;;
68438;SDS011;55421;51.600;5.718;2022-11-04T02:44:01;6.00;;;4.00;;
68438;SDS011;55421;51.600;5.718;2022-11-04T02:46:44;7.20;;;3.60;;
68438;SDS011;55421;51.600;5.718;2022-11-04T02:52:02;5.80;;;2.40;;
68438;SDS011;55421;51.600;5.718;2022-11-04T02:54:35;5.60;;;2.50;;
68438;SDS011;55421;51.600;5.718;2022-11-04T02:57:10;4.10;;;2.70;;
68438;SDS011;55421;51.600;5.718;2022-11-04T02:59:45;6.10;;;2.50;;
68438;SDS011;55421;51.600;5.718;2022-11-04T03:02:21;5.90;;;2.60;;
68438;SDS011;55421;51.600;5.718;2022-11-04T03:04:54;5.10;;;2.30;;
68438;SDS011;55421;51.600;5.718;2022-11-04T03:09:59;3.60;;;1.90;;
68438;SDS011;55421;51.600;5.718;2022-11-04T03:12:37;4.90;;;2.20;;
68438;SDS011;55421;51.600;5.718;2022-11-04T03:15:14;2.50;;;1.70;;
68438;SDS011;55421;51.600;5.718;2022-11-04T03:18:13;4.90;;;2.00;;
68438;SDS011;55421;51.600;5.718;2022-11-04T03:20:49;2.20;;;1.70;;
68438;SDS011;55421;51.600;5.718;2022-11-04T03:23:18;6.90;;;2.30;;
68438;SDS011;55421;51.600;5.718;2022-11-04T03:25:47;4.50;;;2.20;;
68438;SDS011;55421;51.600;5.718;2022-11-04T03:28:45;3.50;;;2.30;;
68438;SDS011;55421;51.600;5.718;2022-11-04T03:34:12;8.40;;;3.00;;
68438;SDS011;55421;51.600;5.718;2022-11-04T03:36:39;7.70;;;3.90;;
68438;SDS011;55421;51.600;5.718;2022-11-04T03:39:06;7.60;;;3.50;;
68438;SDS011;55421;51.600;5.718;2022-11-04T03:41:46;6.80;;;3.40;;
68438;SDS011;55421;51.600;5.718;2022-11-04T03:44:15;5.30;;;3.30;;
68438;SDS011;55421;51.600;5.718;2022-11-04T03:46:42;5.70;;;2.90;;
68438;SDS011;55421;51.600;5.718;2022-11-04T03:49:10;5.20;;;3.00;;
68438;SDS011;55421;51.600;5.718;2022-11-04T03:51:37;5.70;;;3.30;;
68438;SDS011;55421;51.600;5.718;2022-11-04T03:54:04;7.30;;;3.60;;
68438;SDS011;55421;51.600;5.718;2022-11-04T03:56:55;6.00;;;2.90;;
68438;SDS011;55421;51.600;5.718;2022-11-04T04:02:16;8.30;;;2.50;;
68438;SDS011;55421;51.600;5.718;2022-11-04T04:07:34;12.10;;;2.80;;
68438;SDS011;55421;51.600;5.718;2022-11-04T04:10:17;5.60;;;2.60;;
68438;SDS011;55421;51.600;5.718;2022-11-04T04:13:16;4.40;;;2.40;;
68438;SDS011;55421;51.600;5.718;2022-11-04T04:15:57;4.40;;;2.00;;
68438;SDS011;55421;51.600;5.718;2022-11-04T04:18:35;5.20;;;2.40;;
68438;SDS011;55421;51.600;5.718;2022-11-04T04:21:12;2.70;;;2.00;;
68438;SDS011;55421;51.600;5.718;2022-11-04T04:23:42;5.60;;;2.30;;
68438;SDS011;55421;51.600;5.718;2022-11-04T04:26:31;6.60;;;2.00;;
68438;SDS011;55421;51.600;5.718;2022-11-04T04:29:20;6.90;;;2.30;;
68438;SDS011;55421;51.600;5.718;2022-11-04T04:31:50;5.90;;;2.30;;
68438;SDS011;55421;51.600;5.718;2022-11-04T04:34:30;13.00;;;3.20;;
68438;SDS011;55421;51.600;5.718;2022-11-04T04:37:02;8.90;;;2.10;;
68438;SDS011;55421;51.600;5.718;2022-11-04T04:39:42;4.80;;;2.10;;
68438;SDS011;55421;51.600;5.718;2022-11-04T04:42:32;5.80;;;1.80;;
68438;SDS011;55421;51.600;5.718;2022-11-04T04:45:40;4.80;;;1.70;;
68438;SDS011;55421;51.600;5.718;2022-11-04T04:48:11;8.00;;;2.00;;
68438;SDS011;55421;51.600;5.718;2022-11-04T04:50:41;4.80;;;1.90;;
68438;SDS011;55421;51.600;5.718;2022-11-04T04:53:11;7.00;;;2.10;;
68438;SDS011;55421;51.600;5.718;2022-11-04T04:55:38;4.80;;;1.90;;
68438;SDS011;55421;51.600;5.718;2022-11-04T04:58:05;3.90;;;1.90;;
68438;SDS011;55421;51.600;5.718;2022-11-04T05:00:31;5.30;;;1.90;;
68438;SDS011;55421;51.600;5.718;2022-11-04T05:02:58;5.10;;;2.40;;
68438;SDS011;55421;51.600;5.718;2022-11-04T05:05:25;6.80;;;2.10;;
68438;SDS011;55421;51.600;5.718;2022-11-04T05:07:51;5.90;;;3.00;;
68438;SDS011;55421;51.600;5.718;2022-11-04T05:10:19;6.00;;;2.00;;
68438;SDS011;55421;51.600;5.718;2022-11-04T05:12:46;4.20;;;2.10;;
68438;SDS011;55421;51.600;5.718;2022-11-04T05:15:31;4.80;;;2.10;;
68438;SDS011;55421;51.600;5.718;2022-11-04T05:18:00;4.80;;;1.90;;
68438;SDS011;55421;51.600;5.718;2022-11-04T05:20:28;4.80;;;2.10;;
68438;SDS011;55421;51.600;5.718;2022-11-04T05:22:55;11.10;;;2.80;;
68438;SDS011;55421;51.600;5.718;2022-11-04T05:25:22;5.00;;;2.10;;
68438;SDS011;55421;51.600;5.718;2022-11-04T05:27:48;4.80;;;2.10;;
68438;SDS011;55421;51.600;5.718;2022-11-04T05:30:15;5.50;;;2.40;;
68438;SDS011;55421;51.600;5.718;2022-11-04T05:32:41;6.60;;;2.40;;
68438;SDS011;55421;51.600;5.718;2022-11-04T05:35:10;4.10;;;2.00;;
68438;SDS011;55421;51.600;5.718;2022-11-04T05:37:36;5.30;;;2.80;;
68438;SDS011;55421;51.600;5.718;2022-11-04T05:40:03;7.60;;;2.60;;
68438;SDS011;55421;51.600;5.718;2022-11-04T05:42:30;8.20;;;2.20;;
68438;SDS011;55421;51.600;5.718;2022-11-04T05:44:57;4.20;;;2.30;;
68438;SDS011;55421;51.600;5.718;2022-11-04T05:47:23;9.60;;;3.80;;
68438;SDS011;55421;51.600;5.718;2022-11-04T05:49:50;5.20;;;2.30;;
68438;SDS011;55421;51.600;5.718;2022-11-04T05:52:16;5.60;;;2.30;;
68438;SDS011;55421;51.600;5.718;2022-11-04T05:54:42;5.40;;;2.00;;
68438;SDS011;55421;51.600;5.718;2022-11-04T05:57:09;6.80;;;2.10;;
68438;SDS011;55421;51.600;5.718;2022-11-04T06:02:02;4.40;;;2.20;;
68438;SDS011;55421;51.600;5.718;2022-11-04T06:04:29;11.10;;;2.40;;
68438;SDS011;55421;51.600;5.718;2022-11-04T06:06:55;7.80;;;2.70;;
68438;SDS011;55421;51.600;5.718;2022-11-04T06:09:22;7.30;;;2.80;;
68438;SDS011;55421;51.600;5.718;2022-11-04T06:12:14;6.10;;;2.30;;
68438;SDS011;55421;51.600;5.718;2022-11-04T06:14:42;5.10;;;2.00;;
68438;SDS011;55421;51.600;5.718;2022-11-04T06:17:17;5.00;;;2.40;;
68438;SDS011;55421;51.600;5.718;2022-11-04T06:19:46;6.90;;;2.30;;
68438;SDS011;55421;51.600;5.718;2022-11-04T06:22:14;11.50;;;2.60;;
68438;SDS011;55421;51.600;5.718;2022-11-04T06:24:42;4.70;;;2.40;;
68438;SDS011;55421;51.600;5.718;2022-11-04T06:27:09;7.80;;;2.20;;
68438;SDS011;55421;51.600;5.718;2022-11-04T06:29:37;4.00;;;2.10;;
68438;SDS011;55421;51.600;5.718;2022-11-04T06:32:12;4.80;;;2.20;;
68438;SDS011;55421;51.600;5.718;2022-11-04T06:34:40;8.60;;;2.90;;
68438;SDS011;55421;51.600;5.718;2022-11-04T06:37:08;7.70;;;3.00;;
68438;SDS011;55421;51.600;5.718;2022-11-04T06:39:35;6.20;;;2.80;;
68438;SDS011;55421;51.600;5.718;2022-11-04T06:42:03;8.30;;;2.90;;
68438;SDS011;55421;51.600;5.718;2022-11-04T06:44:30;7.20;;;2.80;;
68438;SDS011;55421;51.600;5.718;2022-11-04T06:46:58;7.10;;;2.20;;
68438;SDS011;55421;51.600;5.718;2022-11-04T06:49:25;5.10;;;2.30;;
68438;SDS011;55421;51.600;5.718;2022-11-04T06:51:52;4.30;;;2.40;;
68438;SDS011;55421;51.600;5.718;2022-11-04T06:54:18;12.20;;;3.40;;
68438;SDS011;55421;51.600;5.718;2022-11-04T06:56:45;23.90;;;12.30;;
68438;SDS011;55421;51.600;5.718;2022-11-04T06:59:17;41.70;;;26.20;;
68438;SDS011;55421;51.600;5.718;2022-11-04T07:01:46;18.20;;;10.50;;
68438;SDS011;55421;51.600;5.718;2022-11-04T07:04:16;20.00;;;7.30;;
68438;SDS011;55421;51.600;5.718;2022-11-04T07:06:43;4.30;;;2.80;;
68438;SDS011;55421;51.600;5.718;2022-11-04T07:09:11;6.80;;;2.60;;
68438;SDS011;55421;51.600;5.718;2022-11-04T07:11:40;6.70;;;2.80;;
68438;SDS011;55421;51.600;5.718;2022-11-04T07:14:08;7.10;;;2.50;;
68438;SDS011;55421;51.600;5.718;2022-11-04T07:16:35;7.30;;;2.40;;
68438;SDS011;55421;51.600;5.718;2022-11-04T07:19:02;4.00;;;2.40;;
68438;SDS011;55421;51.600;5.718;2022-11-04T07:21:29;7.00;;;2.50;;
68438;SDS011;55421;51.600;5.718;2022-11-04T07:23:56;4.80;;;2.60;;
68438;SDS011;55421;51.600;5.718;2022-11-04T07:26:23;7.30;;;2.80;;
68438;SDS011;55421;51.600;5.718;2022-11-04T07:28:50;8.10;;;3.30;;
68438;SDS011;55421;51.600;5.718;2022-11-04T07:31:17;8.30;;;2.80;;
68438;SDS011;55421;51.600;5.718;2022-11-04T07:33:43;8.70;;;2.90;;
68438;SDS011;55421;51.600;5.718;2022-11-04T07:36:17;6.70;;;2.60;;
68438;SDS011;55421;51.600;5.718;2022-11-04T07:38:44;6.70;;;3.00;;
68438;SDS011;55421;51.600;5.718;2022-11-04T07:41:12;6.70;;;2.80;;
68438;SDS011;55421;51.600;5.718;2022-11-04T07:43:39;6.20;;;2.90;;
68438;SDS011;55421;51.600;5.718;2022-11-04T07:46:08;7.90;;;3.20;;
68438;SDS011;55421;51.600;5.718;2022-11-04T07:51:05;7.90;;;3.20;;
68438;SDS011;55421;51.600;5.718;2022-11-04T07:53:33;9.90;;;2.70;;
68438;SDS011;55421;51.600;5.718;2022-11-04T07:56:05;9.10;;;2.90;;
68438;SDS011;55421;51.600;5.718;2022-11-04T07:58:33;8.10;;;2.90;;
68438;SDS011;55421;51.600;5.718;2022-11-04T08:01:02;5.60;;;2.70;;
68438;SDS011;55421;51.600;5.718;2022-11-04T08:03:32;6.60;;;3.10;;
68438;SDS011;55421;51.600;5.718;2022-11-04T08:06:02;11.90;;;3.20;;
68438;SDS011;55421;51.600;5.718;2022-11-04T08:08:30;9.90;;;3.90;;
68438;SDS011;55421;51.600;5.718;2022-11-04T08:11:00;7.40;;;3.20;;
68438;SDS011;55421;51.600;5.718;2022-11-04T08:13:34;7.10;;;3.10;;
68438;SDS011;55421;51.600;5.718;2022-11-04T08:16:03;6.20;;;2.50;;
68438;SDS011;55421;51.600;5.718;2022-11-04T08:18:38;10.30;;;3.60;;
68438;SDS011;55421;51.600;5.718;2022-11-04T08:21:06;9.90;;;3.60;;
68438;SDS011;55421;51.600;5.718;2022-11-04T08:23:33;9.60;;;3.40;;
68438;SDS011;55421;51.600;5.718;2022-11-04T08:26:00;13.40;;;3.30;;
68438;SDS011;55421;51.600;5.718;2022-11-04T08:28:27;8.70;;;3.70;;
68438;SDS011;55421;51.600;5.718;2022-11-04T08:31:01;6.80;;;2.90;;
68438;SDS011;55421;51.600;5.718;2022-11-04T08:33:32;5.00;;;3.00;;
68438;SDS011;55421;51.600;5.718;2022-11-04T08:36:03;8.20;;;2.60;;
68438;SDS011;55421;51.600;5.718;2022-11-04T08:38:38;9.00;;;3.20;;
68438;SDS011;55421;51.600;5.718;2022-11-04T08:41:07;9.70;;;3.60;;
68438;SDS011;55421;51.600;5.718;2022-11-04T08:43:35;7.00;;;3.50;;
68438;SDS011;55421;51.600;5.718;2022-11-04T08:46:04;11.60;;;3.20;;
68438;SDS011;55421;51.600;5.718;2022-11-04T08:48:33;10.30;;;5.30;;
68438;SDS011;55421;51.600;5.718;2022-11-04T08:51:02;9.30;;;3.40;;
68438;SDS011;55421;51.600;5.718;2022-11-04T08:53:30;10.00;;;3.10;;
68438;SDS011;55421;51.600;5.718;2022-11-04T08:55:57;4.90;;;2.90;;
68438;SDS011;55421;51.600;5.718;2022-11-04T08:58:24;9.20;;;3.20;;
68438;SDS011;55421;51.600;5.718;2022-11-04T09:00:51;9.10;;;3.80;;
68438;SDS011;55421;51.600;5.718;2022-11-04T09:03:17;10.90;;;3.30;;
68438;SDS011;55421;51.600;5.718;2022-11-04T09:05:44;8.40;;;3.70;;
68438;SDS011;55421;51.600;5.718;2022-11-04T09:08:11;9.10;;;3.80;;
68438;SDS011;55421;51.600;5.718;2022-11-04T09:10:42;11.20;;;3.50;;
68438;SDS011;55421;51.600;5.718;2022-11-04T09:13:10;4.40;;;3.00;;
68438;SDS011;55421;51.600;5.718;2022-11-04T09:15:38;6.70;;;3.30;;
68438;SDS011;55421;51.600;5.718;2022-11-04T09:18:05;7.50;;;3.50;;
68438;SDS011;55421;51.600;5.718;2022-11-04T09:20:33;17.60;;;3.60;;
68438;SDS011;55421;51.600;5.718;2022-11-04T09:23:04;7.60;;;3.50;;
68438;SDS011;55421;51.600;5.718;2022-11-04T09:25:31;8.90;;;3.60;;
68438;SDS011;55421;51.600;5.718;2022-11-04T09:27:58;13.00;;;3.90;;
68438;SDS011;55421;51.600;5.718;2022-11-04T09:30:25;7.40;;;3.40;;
68438;SDS011;55421;51.600;5.718;2022-11-04T09:32:52;11.10;;;4.40;;
68438;SDS011;55421;51.600;5.718;2022-11-04T09:35:19;6.60;;;2.90;;
68438;SDS011;55421;51.600;5.718;2022-11-04T09:37:45;11.50;;;3.40;;
68438;SDS011;55421;51.600;5.718;2022-11-04T09:40:18;7.20;;;3.30;;
68438;SDS011;55421;51.600;5.718;2022-11-04T09:43:13;10.00;;;3.80;;
68438;SDS011;55421;51.600;5.718;2022-11-04T09:45:51;11.20;;;3.70;;
68438;SDS011;55421;51.600;5.718;2022-11-04T09:48:28;11.50;;;4.20;;
68438;SDS011;55421;51.600;5.718;2022-11-04T09:51:02;10.80;;;4.20;;
68438;SDS011;55421;51.600;5.718;2022-11-04T09:53:44;9.80;;;4.00;;
68438;SDS011;55421;51.600;5.718;2022-11-04T09:56:36;11.40;;;4.60;;
68438;SDS011;55421;51.600;5.718;2022-11-04T09:59:10;11.00;;;4.20;;
68438;SDS011;55421;51.600;5.718;2022-11-04T10:01:54;7.70;;;4.10;;
68438;SDS011;55421;51.600;5.718;2022-11-04T10:04:50;7.50;;;4.10;;
68438;SDS011;55421;51.600;5.718;2022-11-04T10:13:44;12.10;;;5.20;;
68438;SDS011;55421;51.600;5.718;2022-11-04T10:16:30;9.60;;;5.20;;
68438;SDS011;55421;51.600;5.718;2022-11-04T10:22:27;13.70;;;5.30;;
68438;SDS011;55421;51.600;5.718;2022-11-04T10:25:09;7.40;;;3.80;;
68438;SDS011;55421;51.600;5.718;2022-11-04T10:27:42;15.90;;;4.30;;
68438;SDS011;55421;51.600;5.718;2022-11-04T10:32:43;6.90;;;3.60;;
68438;SDS011;55421;51.600;5.718;2022-11-04T10:35:43;13.00;;;4.90;;
68438;SDS011;55421;51.600;5.718;2022-11-04T10:38:18;9.60;;;3.80;;
68438;SDS011;55421;51.600;5.718;2022-11-04T10:40:50;10.50;;;4.10;;
68438;SDS011;55421;51.600;5.718;2022-11-04T10:43:32;13.20;;;5.00;;
68438;SDS011;55421;51.600;5.718;2022-11-04T10:51:28;6.30;;;3.80;;
68438;SDS011;55421;51.600;5.718;2022-11-04T10:53:56;10.10;;;4.00;;
68438;SDS011;55421;51.600;5.718;2022-11-04T10:59:22;12.20;;;4.60;;
68438;SDS011;55421;51.600;5.718;2022-11-04T11:01:57;9.50;;;5.20;;
68438;SDS011;55421;51.600;5.718;2022-11-04T11:04:31;10.10;;;5.70;;
68438;SDS011;55421;51.600;5.718;2022-11-04T11:07:12;11.90;;;6.50;;
68438;SDS011;55421;51.600;5.718;2022-11-04T11:09:51;14.50;;;6.00;;
68438;SDS011;55421;51.600;5.718;2022-11-04T11:12:22;10.50;;;6.20;;
68438;SDS011;55421;51.600;5.718;2022-11-04T11:14:57;16.00;;;6.20;;
68438;SDS011;55421;51.600;5.718;2022-11-04T11:20:18;14.00;;;6.80;;
68438;SDS011;55421;51.600;5.718;2022-11-04T11:22:49;16.20;;;7.40;;
68438;SDS011;55421;51.600;5.718;2022-11-04T11:25:24;12.90;;;6.50;;
68438;SDS011;55421;51.600;5.718;2022-11-04T11:33:28;15.30;;;6.30;;
68438;SDS011;55421;51.600;5.718;2022-11-04T11:38:30;12.10;;;6.90;;
68438;SDS011;55421;51.600;5.718;2022-11-04T11:41:08;16.00;;;7.80;;
68438;SDS011;55421;51.600;5.718;2022-11-04T11:43:41;15.80;;;7.60;;
68438;SDS011;55421;51.600;5.718;2022-11-04T11:46:10;15.30;;;7.80;;
68438;SDS011;55421;51.600;5.718;2022-11-04T11:48:43;14.80;;;7.90;;
68438;SDS011;55421;51.600;5.718;2022-11-04T11:51:24;13.80;;;8.00;;
68438;SDS011;55421;51.600;5.718;2022-11-04T11:54:25;12.20;;;7.40;;
68438;SDS011;55421;51.600;5.718;2022-11-04T11:57:01;13.40;;;7.80;;
68438;SDS011;55421;51.600;5.718;2022-11-04T11:59:46;15.90;;;8.30;;
68438;SDS011;55421;51.600;5.718;2022-11-04T12:02:40;14.90;;;8.50;;
68438;SDS011;55421;51.600;5.718;2022-11-04T12:05:16;13.80;;;8.30;;
68438;SDS011;55421;51.600;5.718;2022-11-04T12:07:55;19.90;;;8.70;;
68438;SDS011;55421;51.600;5.718;2022-11-04T12:10:44;11.70;;;6.90;;
68438;SDS011;55421;51.600;5.718;2022-11-04T12:13:41;14.90;;;8.30;;
68438;SDS011;55421;51.600;5.718;2022-11-04T12:24:59;16.60;;;9.70;;
68438;SDS011;55421;51.600;5.718;2022-11-04T12:40:21;13.90;;;8.30;;
68438;SDS011;55421;51.600;5.718;2022-11-04T12:58:13;12.20;;;6.90;;
68438;SDS011;55421;51.600;5.718;2022-11-04T13:00:56;11.10;;;5.80;;
68438;SDS011;55421;51.600;5.718;2022-11-04T13:06:48;13.80;;;7.20;;
68438;SDS011;55421;51.600;5.718;2022-11-04T13:12:28;16.60;;;7.90;;
68438;SDS011;55421;51.600;5.718;2022-11-04T13:15:06;11.90;;;7.60;;
68438;SDS011;55421;51.600;5.718;2022-11-04T13:17:44;12.80;;;8.20;;
68438;SDS011;55421;51.600;5.718;2022-11-04T13:20:20;17.40;;;8.00;;
68438;SDS011;55421;51.600;5.718;2022-11-04T13:22:57;16.10;;;6.80;;
68438;SDS011;55421;51.600;5.718;2022-11-04T13:25:33;13.10;;;6.50;;
68438;SDS011;55421;51.600;5.718;2022-11-04T13:28:10;9.90;;;6.00;;
68438;SDS011;55421;51.600;5.718;2022-11-04T13:36:39;14.10;;;6.20;;
68438;SDS011;55421;51.600;5.718;2022-11-04T13:39:20;12.90;;;6.90;;
68438;SDS011;55421;51.600;5.718;2022-11-04T13:42:04;14.70;;;7.10;;
68438;SDS011;55421;51.600;5.718;2022-11-04T13:44:49;15.00;;;6.90;;
68438;SDS011;55421;51.600;5.718;2022-11-04T13:47:24;13.40;;;6.70;;
68438;SDS011;55421;51.600;5.718;2022-11-04T13:49:57;12.80;;;7.40;;
68438;SDS011;55421;51.600;5.718;2022-11-04T13:52:29;9.60;;;7.30;;
68438;SDS011;55421;51.600;5.718;2022-11-04T13:54:58;13.90;;;8.40;;
68438;SDS011;55421;51.600;5.718;2022-11-04T13:57:30;11.80;;;7.40;;
68438;SDS011;55421;51.600;5.718;2022-11-04T14:08:12;13.10;;;7.60;;
68438;SDS011;55421;51.600;5.718;2022-11-04T14:18:45;23.10;;;12.10;;
68438;SDS011;55421;51.600;5.718;2022-11-04T14:21:15;19.70;;;11.10;;
68438;SDS011;55421;51.600;5.718;2022-11-04T14:23:46;17.60;;;9.90;;
68438;SDS011;55421;51.600;5.718;2022-11-04T14:26:17;18.80;;;10.60;;
68438;SDS011;55421;51.600;5.718;2022-11-04T14:29:00;16.10;;;10.60;;
68438;SDS011;55421;51.600;5.718;2022-11-04T14:31:39;17.50;;;11.90;;
68438;SDS011;55421;51.600;5.718;2022-11-04T14:34:23;18.80;;;11.20;;
68438;SDS011;55421;51.600;5.718;2022-11-04T14:36:56;16.80;;;10.70;;
68438;SDS011;55421;51.600;5.718;2022-11-04T14:39:33;16.60;;;10.90;;
68438;SDS011;55421;51.600;5.718;2022-11-04T14:42:05;17.20;;;10.60;;
68438;SDS011;55421;51.600;5.718;2022-11-04T14:49:50;17.50;;;10.20;;
68438;SDS011;55421;51.600;5.718;2022-11-04T14:52:33;13.80;;;10.80;;
68438;SDS011;55421;51.600;5.718;2022-11-04T14:55:23;12.70;;;9.50;;
68438;SDS011;55421;51.600;5.718;2022-11-04T14:57:58;13.90;;;9.90;;
68438;SDS011;55421;51.600;5.718;2022-11-04T15:05:52;17.30;;;10.00;;
68438;SDS011;55421;51.600;5.718;2022-11-04T15:11:13;17.60;;;10.80;;
68438;SDS011;55421;51.600;5.718;2022-11-04T15:14:14;16.10;;;10.00;;
68438;SDS011;55421;51.600;5.718;2022-11-04T15:16:47;16.40;;;10.80;;
68438;SDS011;55421;51.600;5.718;2022-11-04T15:19:32;16.70;;;9.80;;
68438;SDS011;55421;51.600;5.718;2022-11-04T15:22:02;14.40;;;9.60;;
68438;SDS011;55421;51.600;5.718;2022-11-04T15:24:30;14.60;;;8.10;;
68438;SDS011;55421;51.600;5.718;2022-11-04T15:27:02;18.30;;;9.90;;
68438;SDS011;55421;51.600;5.718;2022-11-04T15:29:31;13.30;;;8.30;;
68438;SDS011;55421;51.600;5.718;2022-11-04T15:32:02;16.90;;;9.40;;
68438;SDS011;55421;51.600;5.718;2022-11-04T15:34:31;12.80;;;8.20;;
68438;SDS011;55421;51.600;5.718;2022-11-04T15:37:00;13.10;;;8.40;;
68438;SDS011;55421;51.600;5.718;2022-11-04T15:39:32;13.40;;;8.00;;
68438;SDS011;55421;51.600;5.718;2022-11-04T15:42:04;13.50;;;8.50;;
68438;SDS011;55421;51.600;5.718;2022-11-04T15:44:53;15.00;;;7.20;;
68438;SDS011;55421;51.600;5.718;2022-11-04T15:47:25;14.50;;;7.80;;
68438;SDS011;55421;51.600;5.718;2022-11-04T15:50:03;13.70;;;8.20;;
68438;SDS011;55421;51.600;5.718;2022-11-04T15:52:52;13.10;;;7.90;;
68438;SDS011;55421;51.600;5.718;2022-11-04T15:55:22;12.10;;;7.80;;
68438;SDS011;55421;51.600;5.718;2022-11-04T15:57:52;10.80;;;7.60;;
68438;SDS011;55421;51.600;5.718;2022-11-04T16:00:23;12.90;;;6.10;;
68438;SDS011;55421;51.600;5.718;2022-11-04T16:02:54;10.60;;;4.80;;
68438;SDS011;55421;51.600;5.718;2022-11-04T16:05:26;8.20;;;4.70;;
68438;SDS011;55421;51.600;5.718;2022-11-04T16:08:26;7.70;;;4.50;;
68438;SDS011;55421;51.600;5.718;2022-11-04T16:11:12;11.30;;;5.40;;
68438;SDS011;55421;51.600;5.718;2022-11-04T16:13:44;5.60;;;3.60;;
68438;SDS011;55421;51.600;5.718;2022-11-04T16:16:19;6.90;;;3.70;;
68438;SDS011;55421;51.600;5.718;2022-11-04T16:18:52;5.60;;;3.40;;
68438;SDS011;55421;51.600;5.718;2022-11-04T16:21:34;7.70;;;3.10;;
68438;SDS011;55421;51.600;5.718;2022-11-04T16:24:04;8.60;;;3.30;;
68438;SDS011;55421;51.600;5.718;2022-11-04T16:26:42;7.70;;;3.30;;
68438;SDS011;55421;51.600;5.718;2022-11-04T16:29:22;19.80;;;4.00;;
68438;SDS011;55421;51.600;5.718;2022-11-04T16:32:14;8.10;;;3.80;;
68438;SDS011;55421;51.600;5.718;2022-11-04T16:34:47;8.10;;;4.00;;
68438;SDS011;55421;51.600;5.718;2022-11-04T16:37:16;8.90;;;4.30;;
68438;SDS011;55421;51.600;5.718;2022-11-04T16:39:44;6.60;;;3.20;;
68438;SDS011;55421;51.600;5.718;2022-11-04T16:42:12;6.10;;;2.90;;
68438;SDS011;55421;51.600;5.718;2022-11-04T16:44:45;4.30;;;2.50;;
68438;SDS011;55421;51.600;5.718;2022-11-04T16:47:16;5.40;;;2.60;;
68438;SDS011;55421;51.600;5.718;2022-11-04T16:49:44;3.50;;;2.20;;
68438;SDS011;55421;51.600;5.718;2022-11-04T16:52:14;9.10;;;2.50;;
68438;SDS011;55421;51.600;5.718;2022-11-04T16:54:48;3.70;;;2.10;;
68438;SDS011;55421;51.600;5.718;2022-11-04T16:57:14;3.80;;;2.40;;
68438;SDS011;55421;51.600;5.718;2022-11-04T16:59:44;4.30;;;2.40;;
68438;SDS011;55421;51.600;5.718;2022-11-04T17:02:18;3.50;;;2.30;;
68438;SDS011;55421;51.600;5.718;2022-11-04T17:04:53;3.60;;;2.20;;
68438;SDS011;55421;51.600;5.718;2022-11-04T17:07:20;3.10;;;2.10;;
68438;SDS011;55421;51.600;5.718;2022-11-04T17:09:46;4.90;;;1.80;;
68438;SDS011;55421;51.600;5.718;2022-11-04T17:12:13;2.10;;;1.80;;
68438;SDS011;55421;51.600;5.718;2022-11-04T17:14:39;6.90;;;1.80;;
68438;SDS011;55421;51.600;5.718;2022-11-04T17:17:06;6.30;;;2.30;;
68438;SDS011;55421;51.600;5.718;2022-11-04T17:19:34;4.40;;;2.10;;
68438;SDS011;55421;51.600;5.718;2022-11-04T17:22:03;4.90;;;2.40;;
68438;SDS011;55421;51.600;5.718;2022-11-04T17:24:31;12.60;;;2.40;;
68438;SDS011;55421;51.600;5.718;2022-11-04T17:26:58;4.40;;;2.20;;
68438;SDS011;55421;51.600;5.718;2022-11-04T17:29:25;3.60;;;2.30;;
68438;SDS011;55421;51.600;5.718;2022-11-04T17:31:51;5.70;;;2.30;;
68438;SDS011;55421;51.600;5.718;2022-11-04T17:34:18;2.70;;;1.80;;
68438;SDS011;55421;51.600;5.718;2022-11-04T17:36:48;6.90;;;2.30;;
68438;SDS011;55421;51.600;5.718;2022-11-04T17:39:15;3.50;;;2.00;;
68438;SDS011;55421;51.600;5.718;2022-11-04T17:41:41;5.40;;;2.30;;